sensor_id;sensor_type;location;lat;lon;timestamp;P1;durP1;ratioP1;P2;durP2;ratioP2
3175;SDS011;1599;51.564;6.990;2023-04-19T02:26:36;18.07;;;11.87;;
3175;SDS011;1599;51.564;6.990;2023-04-19T03:07:02;15.40;;;9.90;;
3175;SDS011;1599;51.564;6.990;2023-04-19T03:09:30;13.73;;;9.43;;
3175;SDS011;1599;51.564;6.990;2023-04-19T05:27:38;10.43;;;6.47;;
3175;SDS011;1599;51.564;6.990;2023-04-19T06:54:57;6.53;;;3.80;;
3175;SDS011;1599;51.564;6.990;2023-04-19T06:57:55;8.50;;;4.67;;
3175;SDS011;1599;51.564;6.990;2023-04-19T07:03:33;5.00;;;3.97;;
3175;SDS011;1599;51.564;6.990;2023-04-19T07:06:01;8.53;;;4.70;;
3175;SDS011;1599;51.564;6.990;2023-04-19T07:08:27;7.30;;;4.33;;
3175;SDS011;1599;51.564;6.990;2023-04-19T07:10:55;7.03;;;4.47;;
3175;SDS011;1599;51.564;6.990;2023-04-19T07:13:22;8.60;;;4.73;;
3175;SDS011;1599;51.564;6.990;2023-04-19T07:15:48;7.57;;;4.80;;
3175;SDS011;1599;51.564;6.990;2023-04-19T07:18:14;8.00;;;4.60;;
3175;SDS011;1599;51.564;6.990;2023-04-19T07:20:40;6.00;;;4.40;;
3175;SDS011;1599;51.564;6.990;2023-04-19T07:23:09;7.87;;;4.47;;
3175;SDS011;1599;51.564;6.990;2023-04-19T07:25:35;6.80;;;4.47;;
3175;SDS011;1599;51.564;6.990;2023-04-19T07:28:02;10.23;;;5.10;;
3175;SDS011;1599;51.564;6.990;2023-04-19T07:30:28;6.97;;;4.33;;
3175;SDS011;1599;51.564;6.990;2023-04-19T07:32:54;6.90;;;4.13;;
3175;SDS011;1599;51.564;6.990;2023-04-19T07:35:20;5.63;;;4.57;;
3175;SDS011;1599;51.564;6.990;2023-04-19T07:37:46;6.60;;;4.23;;
3175;SDS011;1599;51.564;6.990;2023-04-19T07:40:12;7.17;;;4.70;;
3175;SDS011;1599;51.564;6.990;2023-04-19T07:42:38;6.27;;;3.80;;
3175;SDS011;1599;51.564;6.990;2023-04-19T07:45:04;5.93;;;4.00;;
3175;SDS011;1599;51.564;6.990;2023-04-19T07:47:30;7.60;;;4.20;;
3175;SDS011;1599;51.564;6.990;2023-04-19T07:49:56;8.30;;;4.53;;
3175;SDS011;1599;51.564;6.990;2023-04-19T07:52:22;6.10;;;4.10;;
3175;SDS011;1599;51.564;6.990;2023-04-19T07:54:47;6.83;;;3.80;;
3175;SDS011;1599;51.564;6.990;2023-04-19T07:57:13;5.60;;;3.63;;
3175;SDS011;1599;51.564;6.990;2023-04-19T07:59:39;10.17;;;4.20;;
3175;SDS011;1599;51.564;6.990;2023-04-19T08:02:05;6.00;;;3.97;;
3175;SDS011;1599;51.564;6.990;2023-04-19T08:04:31;8.20;;;4.43;;
3175;SDS011;1599;51.564;6.990;2023-04-19T08:06:57;6.27;;;3.73;;
3175;SDS011;1599;51.564;6.990;2023-04-19T08:09:23;13.97;;;3.70;;
3175;SDS011;1599;51.564;6.990;2023-04-19T08:11:49;4.20;;;3.03;;
3175;SDS011;1599;51.564;6.990;2023-04-19T08:14:14;5.90;;;3.80;;
3175;SDS011;1599;51.564;6.990;2023-04-19T08:16:40;6.60;;;3.23;;
3175;SDS011;1599;51.564;6.990;2023-04-19T08:19:05;4.83;;;3.30;;
3175;SDS011;1599;51.564;6.990;2023-04-19T08:21:31;4.40;;;3.43;;
3175;SDS011;1599;51.564;6.990;2023-04-19T08:23:57;4.53;;;3.50;;
3175;SDS011;1599;51.564;6.990;2023-04-19T08:26:22;5.37;;;3.30;;
3175;SDS011;1599;51.564;6.990;2023-04-19T08:28:48;4.70;;;3.23;;
3175;SDS011;1599;51.564;6.990;2023-04-19T08:31:16;5.40;;;2.80;;
3175;SDS011;1599;51.564;6.990;2023-04-19T08:33:43;4.47;;;3.83;;
3175;SDS011;1599;51.564;6.990;2023-04-19T08:36:09;4.17;;;2.70;;
3175;SDS011;1599;51.564;6.990;2023-04-19T08:38:35;5.67;;;3.60;;
3175;SDS011;1599;51.564;6.990;2023-04-19T08:41:02;5.23;;;3.17;;
3175;SDS011;1599;51.564;6.990;2023-04-19T08:43:28;7.60;;;4.33;;
3175;SDS011;1599;51.564;6.990;2023-04-19T08:45:57;5.57;;;3.70;;
3175;SDS011;1599;51.564;6.990;2023-04-19T08:48:23;4.73;;;3.30;;
3175;SDS011;1599;51.564;6.990;2023-04-19T08:50:49;5.40;;;3.30;;
3175;SDS011;1599;51.564;6.990;2023-04-19T08:53:15;4.97;;;3.30;;
3175;SDS011;1599;51.564;6.990;2023-04-19T08:55:41;4.70;;;3.37;;
3175;SDS011;1599;51.564;6.990;2023-04-19T08:58:07;4.27;;;3.17;;
3175;SDS011;1599;51.564;6.990;2023-04-19T09:00:33;5.20;;;2.80;;
3175;SDS011;1599;51.564;6.990;2023-04-19T09:03:01;5.97;;;3.20;;
3175;SDS011;1599;51.564;6.990;2023-04-19T09:05:27;4.37;;;3.00;;
3175;SDS011;1599;51.564;6.990;2023-04-19T09:07:52;6.17;;;2.97;;
3175;SDS011;1599;51.564;6.990;2023-04-19T09:10:19;4.83;;;3.60;;
3175;SDS011;1599;51.564;6.990;2023-04-19T09:13:01;3.33;;;2.73;;
3175;SDS011;1599;51.564;6.990;2023-04-19T09:15:35;6.20;;;3.83;;
3175;SDS011;1599;51.564;6.990;2023-04-19T09:18:03;4.77;;;3.40;;
3175;SDS011;1599;51.564;6.990;2023-04-19T09:20:37;4.20;;;2.70;;
3175;SDS011;1599;51.564;6.990;2023-04-19T09:23:06;7.20;;;3.30;;
3175;SDS011;1599;51.564;6.990;2023-04-19T09:25:33;3.57;;;2.93;;
3175;SDS011;1599;51.564;6.990;2023-04-19T09:30:36;5.53;;;3.30;;
3175;SDS011;1599;51.564;6.990;2023-04-19T09:33:01;4.90;;;3.37;;
3175;SDS011;1599;51.564;6.990;2023-04-19T09:35:40;6.10;;;3.50;;
3175;SDS011;1599;51.564;6.990;2023-04-19T09:38:13;5.93;;;3.50;;
3175;SDS011;1599;51.564;6.990;2023-04-19T09:40:39;4.03;;;3.30;;
3175;SDS011;1599;51.564;6.990;2023-04-19T09:43:06;4.43;;;3.53;;
3175;SDS011;1599;51.564;6.990;2023-04-19T09:45:41;6.67;;;3.37;;
3175;SDS011;1599;51.564;6.990;2023-04-19T09:48:09;4.67;;;2.93;;
3175;SDS011;1599;51.564;6.990;2023-04-19T09:50:35;6.43;;;2.63;;
3175;SDS011;1599;51.564;6.990;2023-04-19T09:53:15;4.47;;;2.77;;
3175;SDS011;1599;51.564;6.990;2023-04-19T09:55:43;6.63;;;3.70;;
3175;SDS011;1599;51.564;6.990;2023-04-19T09:58:09;4.53;;;3.17;;
3175;SDS011;1599;51.564;6.990;2023-04-19T10:00:35;4.07;;;3.17;;
3175;SDS011;1599;51.564;6.990;2023-04-19T10:03:01;7.87;;;4.30;;
3175;SDS011;1599;51.564;6.990;2023-04-19T10:05:28;7.37;;;3.43;;
3175;SDS011;1599;51.564;6.990;2023-04-19T10:07:54;16.57;;;3.77;;
3175;SDS011;1599;51.564;6.990;2023-04-19T10:10:23;4.77;;;3.57;;
3175;SDS011;1599;51.564;6.990;2023-04-19T10:12:50;5.80;;;3.40;;
3175;SDS011;1599;51.564;6.990;2023-04-19T10:15:17;6.43;;;3.70;;
3175;SDS011;1599;51.564;6.990;2023-04-19T10:17:45;5.23;;;3.23;;
3175;SDS011;1599;51.564;6.990;2023-04-19T10:20:15;4.93;;;3.20;;
3175;SDS011;1599;51.564;6.990;2023-04-19T10:22:47;5.40;;;3.57;;
3175;SDS011;1599;51.564;6.990;2023-04-19T10:25:14;5.27;;;3.53;;
3175;SDS011;1599;51.564;6.990;2023-04-19T10:27:41;8.00;;;3.23;;
3175;SDS011;1599;51.564;6.990;2023-04-19T10:30:16;4.23;;;2.93;;
3175;SDS011;1599;51.564;6.990;2023-04-19T10:32:51;7.40;;;3.30;;
3175;SDS011;1599;51.564;6.990;2023-04-19T10:35:38;4.40;;;3.33;;
3175;SDS011;1599;51.564;6.990;2023-04-19T10:38:11;4.03;;;3.27;;
3175;SDS011;1599;51.564;6.990;2023-04-19T10:43:19;5.03;;;3.23;;
3175;SDS011;1599;51.564;6.990;2023-04-19T10:45:46;4.20;;;3.07;;
3175;SDS011;1599;51.564;6.990;2023-04-19T10:56:55;5.17;;;3.50;;
3175;SDS011;1599;51.564;6.990;2023-04-19T11:01:39;5.80;;;3.10;;
3175;SDS011;1599;51.564;6.990;2023-04-19T11:09:25;5.50;;;3.20;;
3175;SDS011;1599;51.564;6.990;2023-04-19T11:11:53;7.57;;;3.70;;
3175;SDS011;1599;51.564;6.990;2023-04-19T11:14:22;4.13;;;3.50;;
3175;SDS011;1599;51.564;6.990;2023-04-19T11:16:48;4.80;;;3.10;;
3175;SDS011;1599;51.564;6.990;2023-04-19T11:19:14;5.40;;;3.73;;
3175;SDS011;1599;51.564;6.990;2023-04-19T11:21:43;5.10;;;3.53;;
3175;SDS011;1599;51.564;6.990;2023-04-19T11:24:10;4.07;;;3.60;;
3175;SDS011;1599;51.564;6.990;2023-04-19T11:26:48;5.17;;;3.77;;
3175;SDS011;1599;51.564;6.990;2023-04-19T11:29:21;6.83;;;3.70;;
3175;SDS011;1599;51.564;6.990;2023-04-19T11:32:12;3.83;;;3.27;;
3175;SDS011;1599;51.564;6.990;2023-04-19T11:34:40;5.03;;;4.00;;
3175;SDS011;1599;51.564;6.990;2023-04-19T11:37:21;6.37;;;3.83;;
3175;SDS011;1599;51.564;6.990;2023-04-19T11:39:49;6.33;;;4.10;;
3175;SDS011;1599;51.564;6.990;2023-04-19T11:42:15;7.63;;;3.93;;
3175;SDS011;1599;51.564;6.990;2023-04-19T11:44:51;6.37;;;4.27;;
3175;SDS011;1599;51.564;6.990;2023-04-19T11:47:29;5.80;;;3.90;;
3175;SDS011;1599;51.564;6.990;2023-04-19T11:50:28;7.63;;;4.27;;
3175;SDS011;1599;51.564;6.990;2023-04-19T11:53:29;4.87;;;3.73;;
3175;SDS011;1599;51.564;6.990;2023-04-19T11:56:29;4.80;;;3.87;;
3175;SDS011;1599;51.564;6.990;2023-04-19T11:59:00;6.20;;;3.90;;
3175;SDS011;1599;51.564;6.990;2023-04-19T12:01:51;5.77;;;4.03;;
3175;SDS011;1599;51.564;6.990;2023-04-19T12:04:17;7.03;;;4.00;;
3175;SDS011;1599;51.564;6.990;2023-04-19T12:07:05;5.70;;;3.87;;
3175;SDS011;1599;51.564;6.990;2023-04-19T12:09:57;5.77;;;4.30;;
3175;SDS011;1599;51.564;6.990;2023-04-19T12:16:06;4.53;;;3.30;;
3175;SDS011;1599;51.564;6.990;2023-04-19T12:18:48;5.50;;;3.80;;
3175;SDS011;1599;51.564;6.990;2023-04-19T12:24:50;7.17;;;4.20;;
3175;SDS011;1599;51.564;6.990;2023-04-19T12:27:24;4.50;;;3.67;;
3175;SDS011;1599;51.564;6.990;2023-04-19T12:30:07;5.73;;;4.00;;
3175;SDS011;1599;51.564;6.990;2023-04-19T12:32:34;5.50;;;3.53;;
3175;SDS011;1599;51.564;6.990;2023-04-19T12:35:07;5.00;;;3.53;;
3175;SDS011;1599;51.564;6.990;2023-04-19T12:37:32;5.03;;;3.43;;
3175;SDS011;1599;51.564;6.990;2023-04-19T12:40:01;5.57;;;3.90;;
3175;SDS011;1599;51.564;6.990;2023-04-19T12:42:29;7.63;;;4.10;;
3175;SDS011;1599;51.564;6.990;2023-04-19T12:45:55;5.10;;;3.90;;
3175;SDS011;1599;51.564;6.990;2023-04-19T12:48:22;6.83;;;3.90;;
3175;SDS011;1599;51.564;6.990;2023-04-19T12:50:48;5.77;;;3.37;;
3175;SDS011;1599;51.564;6.990;2023-04-19T12:53:14;6.90;;;4.47;;
3175;SDS011;1599;51.564;6.990;2023-04-19T12:55:39;4.97;;;3.60;;
3175;SDS011;1599;51.564;6.990;2023-04-19T12:58:05;6.60;;;4.73;;
3175;SDS011;1599;51.564;6.990;2023-04-19T13:00:31;6.10;;;3.97;;
3175;SDS011;1599;51.564;6.990;2023-04-19T13:02:57;5.23;;;4.60;;
3175;SDS011;1599;51.564;6.990;2023-04-19T13:05:23;6.13;;;3.83;;
3175;SDS011;1599;51.564;6.990;2023-04-19T13:07:50;6.63;;;4.27;;
3175;SDS011;1599;51.564;6.990;2023-04-19T13:10:15;6.73;;;4.10;;
3175;SDS011;1599;51.564;6.990;2023-04-19T13:12:41;4.87;;;4.33;;
3175;SDS011;1599;51.564;6.990;2023-04-19T13:15:07;8.73;;;4.47;;
3175;SDS011;1599;51.564;6.990;2023-04-19T13:17:34;6.73;;;4.77;;
3175;SDS011;1599;51.564;6.990;2023-04-19T13:20:02;6.37;;;4.20;;
3175;SDS011;1599;51.564;6.990;2023-04-19T13:22:30;5.30;;;4.00;;
3175;SDS011;1599;51.564;6.990;2023-04-19T13:25:12;5.37;;;3.80;;
3175;SDS011;1599;51.564;6.990;2023-04-19T14:22:37;5.23;;;4.17;;
3175;SDS011;1599;51.564;6.990;2023-04-19T14:28:04;5.60;;;3.57;;
3175;SDS011;1599;51.564;6.990;2023-04-19T14:31:23;6.90;;;3.43;;
3175;SDS011;1599;51.564;6.990;2023-04-19T14:41:04;5.77;;;3.93;;
3175;SDS011;1599;51.564;6.990;2023-04-19T14:43:34;5.77;;;4.23;;
3175;SDS011;1599;51.564;6.990;2023-04-19T14:46:32;6.30;;;3.90;;
3175;SDS011;1599;51.564;6.990;2023-04-19T14:49:44;5.47;;;3.90;;
3175;SDS011;1599;51.564;6.990;2023-04-19T14:52:20;6.23;;;3.70;;
3175;SDS011;1599;51.564;6.990;2023-04-19T14:55:03;4.20;;;3.53;;
3175;SDS011;1599;51.564;6.990;2023-04-19T14:57:49;6.40;;;3.80;;
3175;SDS011;1599;51.564;6.990;2023-04-19T15:00:38;5.00;;;3.73;;
3175;SDS011;1599;51.564;6.990;2023-04-19T15:03:07;5.90;;;4.50;;
3175;SDS011;1599;51.564;6.990;2023-04-19T15:08:17;4.60;;;3.43;;
3175;SDS011;1599;51.564;6.990;2023-04-19T15:10:50;5.93;;;4.13;;
3175;SDS011;1599;51.564;6.990;2023-04-19T15:13:51;7.37;;;3.90;;
3175;SDS011;1599;51.564;6.990;2023-04-19T15:16:44;6.43;;;4.00;;
3175;SDS011;1599;51.564;6.990;2023-04-19T15:19:18;8.60;;;4.53;;
3175;SDS011;1599;51.564;6.990;2023-04-19T15:27:24;6.10;;;4.07;;
3175;SDS011;1599;51.564;6.990;2023-04-19T15:35:51;3.63;;;2.90;;
3175;SDS011;1599;51.564;6.990;2023-04-19T15:38:41;6.87;;;3.37;;
3175;SDS011;1599;51.564;6.990;2023-04-19T15:41:28;4.73;;;3.30;;
3175;SDS011;1599;51.564;6.990;2023-04-19T15:44:01;5.30;;;3.00;;
3175;SDS011;1599;51.564;6.990;2023-04-19T15:46:29;4.93;;;3.43;;
3175;SDS011;1599;51.564;6.990;2023-04-19T15:48:59;6.30;;;3.07;;
3175;SDS011;1599;51.564;6.990;2023-04-19T15:51:26;5.30;;;3.40;;
3175;SDS011;1599;51.564;6.990;2023-04-19T15:53:59;4.37;;;3.17;;
3175;SDS011;1599;51.564;6.990;2023-04-19T15:56:47;4.40;;;2.37;;
3175;SDS011;1599;51.564;6.990;2023-04-19T15:59:35;5.53;;;3.20;;
3175;SDS011;1599;51.564;6.990;2023-04-19T16:05:04;3.93;;;2.30;;
3175;SDS011;1599;51.564;6.990;2023-04-19T16:07:33;5.57;;;3.00;;
3175;SDS011;1599;51.564;6.990;2023-04-19T16:09:59;6.60;;;2.33;;
3175;SDS011;1599;51.564;6.990;2023-04-19T16:12:25;4.63;;;2.40;;
3175;SDS011;1599;51.564;6.990;2023-04-19T16:14:57;4.60;;;2.40;;
3175;SDS011;1599;51.564;6.990;2023-04-19T16:17:24;3.00;;;2.33;;
3175;SDS011;1599;51.564;6.990;2023-04-19T16:19:51;3.53;;;2.30;;
3175;SDS011;1599;51.564;6.990;2023-04-19T16:22:17;3.37;;;2.37;;
3175;SDS011;1599;51.564;6.990;2023-04-19T16:24:43;4.70;;;2.33;;
3175;SDS011;1599;51.564;6.990;2023-04-19T16:27:10;3.83;;;2.67;;
3175;SDS011;1599;51.564;6.990;2023-04-19T16:29:56;3.40;;;2.60;;
3175;SDS011;1599;51.564;6.990;2023-04-19T16:32:21;4.97;;;2.90;;
3175;SDS011;1599;51.564;6.990;2023-04-19T16:34:48;5.40;;;2.40;;
3175;SDS011;1599;51.564;6.990;2023-04-19T16:37:15;4.90;;;3.17;;
3175;SDS011;1599;51.564;6.990;2023-04-19T16:39:42;3.27;;;2.43;;
3175;SDS011;1599;51.564;6.990;2023-04-19T16:42:08;5.33;;;2.77;;
3175;SDS011;1599;51.564;6.990;2023-04-19T16:44:35;4.33;;;2.70;;
3175;SDS011;1599;51.564;6.990;2023-04-19T16:47:02;4.47;;;2.50;;
3175;SDS011;1599;51.564;6.990;2023-04-19T16:49:29;3.43;;;2.90;;
3175;SDS011;1599;51.564;6.990;2023-04-19T16:51:55;3.83;;;2.77;;
3175;SDS011;1599;51.564;6.990;2023-04-19T16:54:23;7.70;;;2.53;;
3175;SDS011;1599;51.564;6.990;2023-04-19T16:56:49;3.27;;;2.80;;
3175;SDS011;1599;51.564;6.990;2023-04-19T16:59:17;3.40;;;2.50;;
3175;SDS011;1599;51.564;6.990;2023-04-19T17:01:53;4.67;;;2.97;;
3175;SDS011;1599;51.564;6.990;2023-04-19T17:04:20;5.03;;;3.00;;
